Time;durP1;ratioP1;P1;durP2;ratioP2;P2;SDS_P1;SDS_P2;PMS_P1;PMS_P2;Temp;Humidity;BMP_temperature;BMP_pressure;BME280_temperature;BME280_humidity;BME280_pressure;Samples;Min_cycle;Max_cycle;Signal;HPM_P1;HPM_P2
2024/01/07 00:01:28;;;;;;;6.32;2.65;;;;;;;2.53;100.00;101780.25;5062108;28;20052;-72
2024/01/07 00:03:55;;;;;;;6.60;2.35;;;;;;;2.44;100.00;101770.69;5061648;28;20060;-72
2024/01/07 00:06:22;;;;;;;6.22;2.65;;;;;;;2.47;100.00;101786.22;5063828;28;20055;-71
2024/01/07 00:08:49;;;;;;;8.20;2.85;;;;;;;2.53;100.00;101789.72;5059815;28;20110;-72
2024/01/07 00:11:15;;;;;;;8.63;2.63;;;;;;;2.46;100.00;101789.66;5063122;28;20037;-72
2024/01/07 00:13:42;;;;;;;6.95;2.80;;;;;;;2.49;100.00;101794.00;5051935;28;20131;-72
2024/01/07 00:16:09;;;;;;;5.65;2.10;;;;;;;2.37;100.00;101789.50;5058592;28;20045;-72
2024/01/07 00:18:35;;;;;;;7.35;2.50;;;;;;;2.39;100.00;101786.97;5055496;28;20053;-72
2024/01/07 00:21:03;;;;;;;7.80;2.10;;;;;;;2.39;100.00;101784.38;5061935;28;20052;-72
2024/01/07 00:23:29;;;;;;;6.38;2.30;;;;;;;2.39;100.00;101790.44;5054021;28;20048;-72
2024/01/07 00:25:56;;;;;;;4.57;1.90;;;;;;;2.40;100.00;101810.25;5052928;28;20044;-72
2024/01/07 00:28:22;;;;;;;6.18;2.33;;;;;;;2.31;100.00;101809.25;5062680;28;20052;-72
2024/01/07 00:30:49;;;;;;;5.82;2.15;;;;;;;2.27;100.00;101816.13;5049265;28;20052;-71
2024/01/07 00:33:16;;;;;;;5.82;2.47;;;;;;;2.22;100.00;101812.59;5063428;28;20052;-72
2024/01/07 00:35:42;;;;;;;5.90;2.05;;;;;;;2.27;100.00;101823.88;5062741;28;20137;-71
2024/01/07 00:38:09;;;;;;;5.80;2.20;;;;;;;2.16;100.00;101807.31;5063517;28;20458;-71
2024/01/07 00:40:36;;;;;;;4.68;1.92;;;;;;;2.09;100.00;101811.56;5065802;28;20044;-72
2024/01/07 00:43:02;;;;;;;9.75;2.47;;;;;;;2.12;100.00;101816.75;5065832;28;20060;-71
2024/01/07 00:45:29;;;;;;;5.18;1.80;;;;;;;2.17;100.00;101830.59;5054500;28;20091;-72
2024/01/07 00:47:56;;;;;;;7.82;2.10;;;;;;;1.95;100.00;101793.25;5059631;28;20049;-71
2024/01/07 00:50:22;;;;;;;4.88;2.17;;;;;;;2.12;100.00;101827.06;5069236;28;20060;-72
2024/01/07 00:52:49;;;;;;;6.60;2.30;;;;;;;2.16;100.00;101833.16;5065879;28;20053;-71
2024/01/07 00:55:16;;;;;;;4.18;1.80;;;;;;;2.12;100.00;101837.41;5060550;28;20067;-72
2024/01/07 00:57:42;;;;;;;7.28;2.65;;;;;;;2.15;100.00;101837.47;5071280;28;20694;-71
2024/01/07 01:00:10;;;;;;;7.45;2.25;;;;;;;2.19;100.00;101841.81;5076164;28;20720;-72
2024/01/07 01:02:37;;;;;;;6.10;2.30;;;;;;;2.23;100.00;101843.63;5060778;28;20045;-72
2024/01/07 01:05:04;;;;;;;5.40;1.92;;;;;;;2.21;100.00;101835.00;5059871;28;20421;-71
2024/01/07 01:07:31;;;;;;;4.53;1.60;;;;;;;2.20;100.00;101848.75;5055422;28;20040;-71
2024/01/07 01:09:58;;;;;;;5.95;2.10;;;;;;;2.28;100.00;101856.59;5055005;28;20049;-72
2024/01/07 01:12:25;;;;;;;6.82;1.85;;;;;;;2.31;100.00;101861.81;5064704;28;20145;-72
2024/01/07 01:14:51;;;;;;;9.77;2.67;;;;;;;2.21;100.00;101849.59;5057900;28;20549;-72
2024/01/07 01:17:18;;;;;;;9.57;2.58;;;;;;;2.27;100.00;101870.38;5068999;28;20071;-72
2024/01/07 01:19:45;;;;;;;6.65;2.08;;;;;;;2.26;100.00;101872.06;5069149;28;20045;-72
2024/01/07 01:22:12;;;;;;;6.88;1.92;;;;;;;2.34;100.00;101871.31;5068220;28;20528;-72
2024/01/07 01:24:39;;;;;;;5.70;1.85;;;;;;;2.37;100.00;101873.94;5066380;28;20056;-72
2024/01/07 01:27:05;;;;;;;4.50;1.92;;;;;;;2.05;100.00;101827.84;5061973;28;20099;-72
2024/01/07 01:29:32;;;;;;;3.65;1.50;;;;;;;2.28;100.00;101869.50;5072413;28;20448;-72
2024/01/07 01:31:59;;;;;;;3.58;1.35;;;;;;;2.44;100.00;101874.09;5064385;28;20044;-72
2024/01/07 01:34:25;;;;;;;4.50;1.70;;;;;;;2.61;100.00;101884.66;5055710;28;20064;-72
2024/01/07 01:36:52;;;;;;;4.38;1.65;;;;;;;2.70;100.00;101881.31;5084063;28;20546;-72
2024/01/07 01:39:19;;;;;;;3.78;1.63;;;;;;;2.69;100.00;101876.13;5059991;28;20517;-72
2024/01/07 01:41:45;;;;;;;3.70;1.50;;;;;;;2.74;100.00;101887.41;5058423;28;20384;-72
2024/01/07 01:44:12;;;;;;;3.38;1.52;;;;;;;2.70;100.00;101893.38;5057335;28;20056;-72
2024/01/07 01:46:39;;;;;;;4.50;1.80;;;;;;;2.69;100.00;101891.63;5059393;28;20788;-72
2024/01/07 01:49:07;;;;;;;9.50;1.63;;;;;;;2.87;100.00;101898.75;5065777;28;20056;-72
2024/01/07 01:51:35;;;;;;;3.88;1.30;;;;;;;3.05;100.00;101899.00;5057352;28;20132;-72
2024/01/07 01:54:02;;;;;;;7.50;1.50;;;;;;;3.15;100.00;101900.88;5064693;28;20529;-72
2024/01/07 01:56:29;;;;;;;3.08;1.27;;;;;;;3.32;100.00;101895.84;5067540;28;20044;-72
2024/01/07 01:58:56;;;;;;;3.55;1.30;;;;;;;3.44;100.00;101900.31;5077268;28;20044;-72
2024/01/07 02:01:23;;;;;;;3.38;1.50;;;;;;;3.55;100.00;101903.00;5055375;28;20045;-72
2024/01/07 02:03:52;;;;;;;5.75;1.92;;;;;;;3.35;100.00;101879.50;5060216;28;20106;-72
2024/01/07 02:06:20;;;;;;;4.25;1.67;;;;;;;3.57;100.00;101885.75;5059455;28;20139;-72
2024/01/07 02:08:48;;;;;;;5.10;1.40;;;;;;;3.75;100.00;101901.50;5060894;28;20057;-72
2024/01/07 02:11:20;;;;;;;4.93;1.42;;;;;;;3.72;100.00;101901.47;5068621;28;20044;-72
2024/01/07 02:13:47;;;;;;;4.13;1.42;;;;;;;3.73;100.00;101899.72;5070941;28;20413;-72
2024/01/07 02:16:15;;;;;;;5.28;1.50;;;;;;;3.96;100.00;101918.06;5057392;28;20475;-72
2024/01/07 02:18:43;;;;;;;3.40;1.35;;;;;;;4.05;100.00;101915.53;5071879;28;20063;-72
2024/01/07 02:21:11;;;;;;;4.50;1.30;;;;;;;4.17;100.00;101927.75;5071806;28;20040;-72
2024/01/07 02:23:37;;;;;;;3.72;1.38;;;;;;;4.01;100.00;101916.38;5064396;28;20056;-72
2024/01/07 02:26:04;;;;;;;4.97;1.50;;;;;;;4.10;100.00;101918.19;5069415;28;20494;-72
2024/01/07 02:28:32;;;;;;;4.70;1.42;;;;;;;4.22;100.00;101920.88;5074845;28;20044;-72
2024/01/07 02:30:59;;;;;;;3.97;1.45;;;;;;;4.19;100.00;101924.28;5071318;28;20099;-72
2024/01/07 02:33:26;;;;;;;5.70;1.63;;;;;;;4.29;100.00;101920.06;5071079;28;20045;-72
2024/01/07 02:35:53;;;;;;;3.28;1.40;;;;;;;4.29;100.00;101914.03;5071365;28;20056;-72
2024/01/07 02:38:19;;;;;;;10.40;1.60;;;;;;;4.23;100.00;101920.00;5065654;28;20048;-72
2024/01/07 02:40:46;;;;;;;4.07;1.20;;;;;;;4.31;100.00;101923.53;5068252;28;20056;-72
2024/01/07 02:43:13;;;;;;;5.43;1.30;;;;;;;4.33;100.00;101924.41;5070810;28;20044;-72
2024/01/07 02:45:39;;;;;;;5.05;1.38;;;;;;;4.36;100.00;101918.38;5070973;28;20658;-72
2024/01/07 02:48:06;;;;;;;2.95;1.20;;;;;;;4.43;100.00;101929.69;5070399;28;20048;-72
2024/01/07 02:50:33;;;;;;;3.40;1.05;;;;;;;4.36;100.00;101931.34;5071134;28;20056;-72
2024/01/07 02:53:00;;;;;;;3.65;1.20;;;;;;;4.38;100.00;101930.50;5070336;28;20044;-72
2024/01/07 02:55:26;;;;;;;3.47;1.15;;;;;;;4.38;100.00;101930.50;5069526;28;20081;-72
2024/01/07 02:57:53;;;;;;;5.53;1.30;;;;;;;4.36;100.00;101939.13;5061181;28;20410;-72
2024/01/07 03:00:20;;;;;;;4.47;1.30;;;;;;;4.21;100.00;101919.13;5071653;28;20063;-72
2024/01/07 03:02:46;;;;;;;3.30;1.20;;;;;;;4.33;100.00;101946.88;5061511;28;20147;-72
2024/01/07 03:05:13;;;;;;;3.28;1.10;;;;;;;4.45;100.00;101946.13;5071138;28;20468;-72
2024/01/07 03:07:40;;;;;;;3.42;1.42;;;;;;;4.41;100.00;101939.16;5070171;28;20094;-72
2024/01/07 03:10:07;;;;;;;4.05;1.20;;;;;;;4.52;100.00;101940.97;5070583;28;20723;-72
2024/01/07 03:12:34;;;;;;;3.90;1.30;;;;;;;4.53;100.00;101954.81;5070114;28;20040;-72
2024/01/07 03:15:01;;;;;;;2.92;1.10;;;;;;;4.56;100.00;101957.44;5070062;28;20139;-73
2024/01/07 03:17:27;;;;;;;5.57;1.10;;;;;;;4.32;100.00;101919.22;5071229;28;20249;-72
2024/01/07 03:19:54;;;;;;;4.97;1.60;;;;;;;4.54;100.00;101956.56;5065521;28;20061;-72
2024/01/07 03:22:21;;;;;;;5.75;1.27;;;;;;;4.62;100.00;101967.84;5056740;28;20405;-72
2024/01/07 03:24:48;;;;;;;5.05;1.30;;;;;;;4.61;100.00;101960.91;5069617;28;20048;-72
2024/01/07 03:27:14;;;;;;;3.92;1.30;;;;;;;4.57;100.00;101953.97;5078842;28;20048;-72
2024/01/07 03:29:41;;;;;;;4.95;1.63;;;;;;;4.71;100.00;101969.63;5078849;28;20048;-72
2024/01/07 03:32:08;;;;;;;7.30;1.50;;;;;;;4.65;100.00;101964.41;5070549;28;20541;-72
2024/01/07 03:34:34;;;;;;;5.75;2.00;;;;;;;4.61;100.00;101966.09;5065191;28;20051;-72
2024/01/07 03:37:01;;;;;;;4.70;1.58;;;;;;;4.64;100.00;101975.63;5056021;28;20049;-72
2024/01/07 03:39:28;;;;;;;7.22;1.65;;;;;;;4.61;100.00;101989.44;5069932;28;20052;-72
2024/01/07 03:41:55;;;;;;;4.68;1.30;;;;;;;4.63;100.00;101992.91;5070234;28;20059;-72
2024/01/07 03:44:22;;;;;;;6.30;1.42;;;;;;;4.63;100.00;101984.28;5059740;28;20051;-72
2024/01/07 03:46:49;;;;;;;3.38;1.20;;;;;;;4.63;100.00;102002.44;5054051;28;20522;-71
2024/01/07 03:49:17;;;;;;;4.30;1.40;;;;;;;4.58;100.00;101989.44;5070845;28;20059;-72
2024/01/07 03:51:44;;;;;;;4.50;1.35;;;;;;;4.62;100.00;101999.00;5069740;28;20052;-72
2024/01/07 03:54:11;;;;;;;4.05;1.40;;;;;;;4.62;100.00;101983.41;5068951;28;20052;-72
2024/01/07 03:56:37;;;;;;;3.53;1.30;;;;;;;4.75;100.00;102005.13;5071296;28;20510;-72
2024/01/07 03:59:04;;;;;;;6.53;1.60;;;;;;;4.68;100.00;101996.41;5074479;28;20462;-72
2024/01/07 04:01:31;;;;;;;5.22;1.40;;;;;;;4.77;100.00;101997.34;5069835;28;20059;-71
2024/01/07 04:03:57;;;;;;;7.70;1.38;;;;;;;4.68;100.00;102003.34;5069272;28;20064;-72
2024/01/07 04:06:24;;;;;;;2.95;1.20;;;;;;;4.63;100.00;101986.88;5069226;28;20052;-71
2024/01/07 04:08:51;;;;;;;3.08;1.30;;;;;;;4.64;100.00;102007.66;5072717;28;20129;-73
2024/01/07 04:11:18;;;;;;;9.63;1.70;;;;;;;4.65;100.00;102014.56;5062844;28;20106;-73
2024/01/07 04:13:45;;;;;;;4.38;1.67;;;;;;;4.72;100.00;102003.34;5061725;28;20441;-72
2024/01/07 04:16:19;;;;;;;7.32;1.30;;;;;;;4.68;100.00;102006.81;5069218;28;20509;-73
2024/01/07 04:18:47;;;;;;;7.05;1.73;;;;;;;4.68;100.00;102016.31;5069414;28;20049;-73
2024/01/07 04:21:19;;;;;;;4.03;1.30;;;;;;;4.56;100.00;102004.13;5068744;28;20044;-72
2024/01/07 04:23:46;;;;;;;3.78;1.35;;;;;;;4.69;100.00;102018.03;5078681;28;20088;-72
2024/01/07 04:26:12;;;;;;;6.15;1.58;;;;;;;4.72;100.00;102018.06;5072340;28;20086;-71
2024/01/07 04:28:41;;;;;;;5.40;1.38;;;;;;;4.76;100.00;102027.59;5070133;28;20051;-72
2024/01/07 04:31:08;;;;;;;8.10;1.40;;;;;;;4.74;100.00;102024.13;5071688;28;20063;-72
2024/01/07 04:33:35;;;;;;;3.30;1.17;;;;;;;4.62;100.00;102013.66;5068704;28;20052;-72
2024/01/07 04:36:04;;;;;;;3.80;1.30;;;;;;;4.62;100.00;102034.41;5069108;28;20052;-72
2024/01/07 04:38:30;;;;;;;2.10;1.10;;;;;;;4.54;100.00;102021.41;5068336;28;20458;-72
2024/01/07 04:40:57;;;;;;;2.92;1.15;;;;;;;4.47;100.00;102040.34;5062638;28;20049;-72
2024/01/07 04:43:24;;;;;;;3.05;1.10;;;;;;;4.42;100.00;102039.44;5067893;28;20049;-72
2024/01/07 04:45:50;;;;;;;3.72;1.27;;;;;;;4.24;100.00;102045.34;5069569;28;20482;-72
2024/01/07 04:48:17;;;;;;;1.67;1.15;;;;;;;4.22;100.00;102045.31;5070404;28;20131;-72
2024/01/07 04:50:44;;;;;;;3.13;1.20;;;;;;;4.24;100.00;102030.63;5068473;28;20048;-72
2024/01/07 04:53:11;;;;;;;3.50;1.27;;;;;;;4.27;100.00;102046.22;5067194;28;20364;-72
2024/01/07 04:55:38;;;;;;;5.15;1.58;;;;;;;4.33;100.00;102046.28;5069311;28;20474;-73
2024/01/07 04:58:04;;;;;;;3.05;1.20;;;;;;;4.32;100.00;102046.25;5069290;28;20410;-73
2024/01/07 05:00:31;;;;;;;3.45;1.08;;;;;;;4.28;100.00;102049.69;5068199;28;20090;-73
2024/01/07 05:02:58;;;;;;;3.92;1.25;;;;;;;4.18;100.00;102041.81;5068506;28;20405;-72
2024/01/07 05:05:25;;;;;;;4.90;1.10;;;;;;;4.11;100.00;102058.19;5069009;28;20095;-72
2024/01/07 05:07:52;;;;;;;1.00;0.90;;;;;;;4.13;100.00;102045.25;5072247;28;20137;-72
2024/01/07 05:10:18;;;;;;;3.17;1.20;;;;;;;4.10;100.00;102048.66;5070534;28;20063;-73
2024/01/07 05:12:45;;;;;;;2.20;1.20;;;;;;;4.13;100.00;102053.88;5072359;28;20053;-72
2024/01/07 05:15:12;;;;;;;2.92;1.20;;;;;;;3.98;100.00;102045.94;5062115;28;20526;-72
2024/01/07 05:17:38;;;;;;;3.88;1.30;;;;;;;4.03;100.00;102057.22;5064823;28;20053;-72
2024/01/07 05:20:06;;;;;;;3.45;1.38;;;;;;;3.90;100.00;102047.59;5073535;28;20056;-72
2024/01/07 05:22:33;;;;;;;5.25;1.80;;;;;;;4.05;100.00;102063.28;5072863;28;20433;-73
2024/01/07 05:25:00;;;;;;;3.70;1.30;;;;;;;4.08;100.00;102065.06;5072477;28;20055;-73
2024/01/07 05:27:27;;;;;;;3.20;1.20;;;;;;;4.14;100.00;102059.91;5071205;28;20056;-72
2024/01/07 05:29:55;;;;;;;2.55;1.20;;;;;;;4.01;100.00;102027.81;5076571;28;20135;-72
2024/01/07 05:32:22;;;;;;;5.97;1.27;;;;;;;4.21;100.00;102055.66;5071962;28;20094;-73
2024/01/07 05:34:50;;;;;;;3.28;1.20;;;;;;;4.15;100.00;102049.56;5070850;28;20055;-72
2024/01/07 05:37:17;;;;;;;3.45;1.52;;;;;;;4.15;100.00;102054.75;5070662;28;20059;-72
2024/01/07 05:39:44;;;;;;;3.55;1.20;;;;;;;4.17;100.00;102059.97;5072380;28;20131;-72
2024/01/07 05:42:10;;;;;;;4.63;1.13;;;;;;;4.13;100.00;102053.88;5071775;28;20048;-73
2024/01/07 05:44:37;;;;;;;4.35;1.40;;;;;;;4.07;100.00;102050.34;5070751;28;20062;-72
2024/01/07 05:47:04;;;;;;;4.72;1.42;;;;;;;4.12;100.00;102059.91;5072159;28;20059;-72
2024/01/07 05:49:31;;;;;;;2.22;1.13;;;;;;;4.03;100.00;102066.72;5072536;28;20057;-72
2024/01/07 05:51:58;;;;;;;3.38;1.15;;;;;;;3.99;100.00;102068.41;5071751;28;20056;-72
2024/01/07 05:54:24;;;;;;;4.93;1.48;;;;;;;3.91;100.00;102072.63;5072428;28;20052;-73
2024/01/07 05:56:52;;;;;;;4.53;1.35;;;;;;;3.88;100.00;102070.00;5062671;28;20048;-72
2024/01/07 05:59:19;;;;;;;6.32;1.52;;;;;;;3.80;100.00;102075.09;5072844;28;20044;-72
2024/01/07 06:01:45;;;;;;;4.82;1.50;;;;;;;3.84;100.00;102079.44;5070985;28;20474;-72
2024/01/07 06:04:12;;;;;;;4.00;1.20;;;;;;;3.76;100.00;102073.34;5072246;28;20114;-73
2024/01/07 06:06:39;;;;;;;3.65;1.20;;;;;;;3.75;100.00;102076.75;5071723;28;20053;-72
2024/01/07 06:09:06;;;;;;;18.67;4.05;;;;;;;3.70;100.00;102087.09;5072576;28;20465;-72
2024/01/07 06:11:33;;;;;;;2.90;1.13;;;;;;;3.67;100.00;102083.59;5074428;28;20048;-72
2024/01/07 06:14:00;;;;;;;3.33;1.23;;;;;;;3.58;100.00;102082.59;5079738;28;20059;-73
2024/01/07 06:16:26;;;;;;;4.40;1.40;;;;;;;3.65;100.00;102082.66;5070258;28;20158;-72
2024/01/07 06:18:53;;;;;;;2.75;1.13;;;;;;;3.67;100.00;102096.53;5071481;28;20055;-72
2024/01/07 06:21:20;;;;;;;3.35;1.30;;;;;;;3.60;100.00;102100.75;5069806;28;20386;-72
2024/01/07 06:23:46;;;;;;;2.90;1.23;;;;;;;3.52;100.00;102102.38;5069934;28;20056;-72
2024/01/07 06:26:15;;;;;;;3.92;1.20;;;;;;;3.45;100.00;102101.41;5071595;28;20127;-72
2024/01/07 06:28:41;;;;;;;7.45;1.52;;;;;;;3.42;100.00;102111.75;5074858;28;20082;-72
2024/01/07 06:31:08;;;;;;;3.25;1.20;;;;;;;3.44;100.00;102115.22;5069934;28;20418;-72
2024/01/07 06:33:35;;;;;;;3.47;1.40;;;;;;;3.47;100.00;102119.56;5071224;28;20467;-72
2024/01/07 06:36:02;;;;;;;5.57;2.17;;;;;;;3.46;100.00;102128.19;5071362;28;20609;-72
2024/01/07 06:38:28;;;;;;;3.58;1.30;;;;;;;3.40;100.00;102123.81;5078893;28;20051;-73
2024/01/07 06:40:59;;;;;;;3.25;1.30;;;;;;;3.41;100.00;102122.94;5062505;28;20056;-72
2024/01/07 06:43:27;;;;;;;4.50;1.40;;;;;;;3.37;100.00;102134.13;5069815;28;20041;-72
2024/01/07 06:45:54;;;;;;;5.90;1.30;;;;;;;3.34;100.00;102134.06;5071354;28;20458;-72
2024/01/07 06:48:21;;;;;;;3.60;1.33;;;;;;;3.40;100.00;102131.56;5057318;28;20044;-72
2024/01/07 06:50:48;;;;;;;2.08;1.00;;;;;;;3.26;100.00;102120.13;5066371;28;20052;-72
2024/01/07 06:53:16;;;;;;;3.05;1.15;;;;;;;3.37;100.00;102136.69;5066335;28;20140;-72
2024/01/07 06:55:43;;;;;;;6.75;2.38;;;;;;;3.29;100.00;102136.56;5070977;28;20730;-72
2024/01/07 06:58:09;;;;;;;3.78;1.27;;;;;;;3.12;100.00;102107.84;5072463;28;20049;-72
2024/01/07 07:00:36;;;;;;;4.57;1.30;;;;;;;3.33;100.00;102145.25;5071140;28;20055;-72
2024/01/07 07:03:03;;;;;;;2.50;1.20;;;;;;;3.25;100.00;102133.94;5077392;28;20052;-72
2024/01/07 07:05:30;;;;;;;7.85;1.27;;;;;;;3.18;100.00;102125.19;5069815;28;20098;-72
2024/01/07 07:07:57;;;;;;;4.63;1.33;;;;;;;3.03;100.00;102110.31;5071600;28;20543;-72
2024/01/07 07:10:24;;;;;;;6.38;1.52;;;;;;;3.20;100.00;102134.72;5069900;28;20054;-72
2024/01/07 07:12:50;;;;;;;5.65;1.30;;;;;;;3.28;100.00;102147.78;5070272;28;20037;-72
2024/01/07 07:15:17;;;;;;;2.88;1.20;;;;;;;3.30;100.00;102147.81;5070687;28;20130;-72
2024/01/07 07:17:44;;;;;;;3.78;1.35;;;;;;;3.27;100.00;102155.53;5070617;28;20050;-72
2024/01/07 07:20:11;;;;;;;2.75;1.15;;;;;;;3.30;100.00;102164.22;5071183;28;20123;-72
2024/01/07 07:22:38;;;;;;;2.95;1.25;;;;;;;3.27;100.00;102158.97;5069908;28;20479;-72
2024/01/07 07:25:05;;;;;;;5.38;1.50;;;;;;;3.21;100.00;102149.41;5062807;28;20405;-72
2024/01/07 07:27:32;;;;;;;4.43;1.45;;;;;;;3.29;100.00;102165.03;5064090;28;20486;-72
2024/01/07 07:29:59;;;;;;;5.28;1.50;;;;;;;3.21;100.00;102151.13;5070349;28;20389;-72
2024/01/07 07:32:25;;;;;;;3.47;1.20;;;;;;;3.18;100.00;102172.66;5069422;28;20074;-72
2024/01/07 07:34:52;;;;;;;3.67;1.63;;;;;;;2.92;100.00;102174.81;5066477;28;20102;-72
2024/01/07 07:37:19;;;;;;;7.63;1.75;;;;;;;2.70;100.00;102177.88;5068546;28;20413;-72
2024/01/07 07:39:47;;;;;;;3.83;1.50;;;;;;;2.52;100.00;102165.47;5069331;28;20106;-72
2024/01/07 07:42:14;;;;;;;4.80;1.42;;;;;;;2.38;100.00;102183.31;5070029;28;20048;-72
2024/01/07 07:44:40;;;;;;;4.47;1.83;;;;;;;2.30;100.00;102177.09;5068800;28;20056;-72
2024/01/07 07:47:07;;;;;;;1.83;1.30;;;;;;;2.32;100.00;102183.19;5065025;28;20425;-72
2024/01/07 07:49:36;;;;;;;4.38;1.40;;;;;;;2.37;100.00;102195.34;5070184;28;20044;-72
2024/01/07 07:52:03;;;;;;;5.10;1.80;;;;;;;2.27;100.00;102185.69;5064483;28;20051;-72
2024/01/07 07:54:30;;;;;;;4.50;1.73;;;;;;;2.34;100.00;102191.81;5069252;28;20139;-72
2024/01/07 07:57:02;;;;;;;3.08;1.38;;;;;;;2.36;100.00;102193.63;5070098;28;20045;-72
2024/01/07 07:59:28;;;;;;;5.80;2.03;;;;;;;2.30;100.00;102202.97;5078299;28;20485;-72
2024/01/07 08:01:55;;;;;;;3.05;1.40;;;;;;;2.24;100.00;102204.56;5064360;28;20466;-72
2024/01/07 08:04:22;;;;;;;6.65;1.75;;;;;;;2.19;100.00;102213.06;5065634;28;20052;-72
2024/01/07 08:06:49;;;;;;;3.88;1.45;;;;;;;2.22;100.00;102223.50;5069318;28;20052;-72
2024/01/07 08:09:15;;;;;;;3.40;1.40;;;;;;;2.10;100.00;102211.19;5069584;28;20131;-72
2024/01/07 08:11:42;;;;;;;3.25;1.75;;;;;;;2.01;100.00;102209.25;5059431;28;20057;-72
2024/01/07 08:14:09;;;;;;;3.72;1.45;;;;;;;2.07;100.00;102229.19;5064767;28;20051;-72
2024/01/07 08:16:35;;;;;;;3.72;1.20;;;;;;;2.04;100.00;102221.41;5069519;28;20394;-72
2024/01/07 08:19:02;;;;;;;2.83;1.80;;;;;;;1.98;100.00;102218.66;5069987;28;20055;-73
2024/01/07 08:21:29;;;;;;;4.90;1.70;;;;;;;2.05;100.00;102228.28;5067997;28;20048;-72
2024/01/07 08:23:55;;;;;;;4.65;1.40;;;;;;;2.05;100.00;102221.44;5068702;28;20753;-72
2024/01/07 08:26:23;;;;;;;4.40;1.38;;;;;;;2.16;100.00;102238.84;5067297;28;20044;-72
2024/01/07 08:28:50;;;;;;;4.57;1.40;;;;;;;2.19;100.00;102219.09;5071552;28;20552;-72
2024/01/07 08:31:17;;;;;;;4.95;1.30;;;;;;;2.30;100.00;102224.50;5071642;28;20062;-72
2024/01/07 08:33:43;;;;;;;3.95;1.38;;;;;;;2.36;100.00;102231.53;5068613;28;20525;-72
2024/01/07 08:36:10;;;;;;;1.73;1.10;;;;;;;2.36;100.00;102231.53;5069267;28;20516;-72
2024/01/07 08:38:37;;;;;;;2.95;1.30;;;;;;;2.46;100.00;102246.34;5069776;28;20080;-72
2024/01/07 08:41:04;;;;;;;3.22;1.20;;;;;;;2.31;100.00;102238.31;5069022;28;20387;-72
2024/01/07 08:43:31;;;;;;;2.88;1.33;;;;;;;2.26;100.00;102239.06;5068141;28;20040;-72
2024/01/07 08:45:57;;;;;;;5.78;1.83;;;;;;;2.28;100.00;102257.19;5068454;28;20052;-72
2024/01/07 08:48:24;;;;;;;6.35;1.55;;;;;;;2.17;100.00;102241.47;5065861;28;20059;-72
2024/01/07 08:50:51;;;;;;;3.20;1.50;;;;;;;2.25;100.00;102259.75;5066473;28;20172;-72
2024/01/07 08:53:20;;;;;;;4.18;1.40;;;;;;;2.33;100.00;102272.81;5057521;28;20076;-72
2024/01/07 08:55:46;;;;;;;5.68;1.90;;;;;;;2.15;100.00;102257.78;5069093;28;20044;-72
2024/01/07 08:58:19;;;;;;;4.50;1.77;;;;;;;2.09;100.00;102267.16;5069265;28;20482;-72
2024/01/07 09:00:47;;;;;;;5.15;2.08;;;;;;;2.02;100.00;102283.38;5076925;28;20052;-72
2024/01/07 09:03:14;;;;;;;4.35;1.90;;;;;;;1.96;100.00;102288.38;5068656;28;20131;-72
2024/01/07 09:05:40;;;;;;;5.15;1.50;;;;;;;2.11;100.00;102282.69;5068474;28;20102;-72
2024/01/07 09:08:07;;;;;;;5.82;1.88;;;;;;;2.17;100.00;102297.47;5068610;28;20446;-72
2024/01/07 09:10:34;;;;;;;4.63;1.58;;;;;;;2.30;100.00;102298.59;5069869;28;20052;-72
2024/01/07 09:13:03;;;;;;;4.93;1.80;;;;;;;2.33;100.00;102299.53;5055206;28;20045;-72
2024/01/07 09:15:30;;;;;;;4.97;1.60;;;;;;;2.45;100.00;102307.53;5067983;28;20520;-72
2024/01/07 09:17:56;;;;;;;5.18;1.80;;;;;;;2.39;100.00;102315.19;5058945;28;20048;-72
2024/01/07 09:20:24;;;;;;;5.53;1.75;;;;;;;2.44;100.00;102305.81;5064862;28;20057;-72
2024/01/07 09:22:50;;;;;;;3.50;1.50;;;;;;;2.65;100.00;102317.44;5054190;28;20044;-72
2024/01/07 09:25:17;;;;;;;3.92;1.60;;;;;;;2.98;100.00;102324.13;5058100;28;20044;-72
2024/01/07 09:27:44;;;;;;;11.07;1.70;;;;;;;3.05;100.00;102328.56;5060239;28;20394;-72
2024/01/07 09:30:14;;;;;;;7.60;2.15;;;;;;;3.19;100.00;102323.66;5069654;28;20448;-72
2024/01/07 09:32:41;;;;;;;5.47;1.60;;;;;;;3.36;100.00;102342.06;5066744;28;20056;-72
2024/01/07 09:35:08;;;;;;;6.25;1.65;;;;;;;3.56;100.00;102332.94;5060512;28;20053;-72
2024/01/07 09:37:36;;;;;;;4.70;1.40;;;;;;;3.93;100.00;102330.97;5061750;28;20057;-71
2024/01/07 09:40:06;;;;;;;3.80;1.35;;;;;;;4.14;100.00;102313.97;5062513;28;20409;-71
2024/01/07 09:42:33;;;;;;;4.18;1.27;;;;;;;4.30;100.00;102334.09;5068095;28;20048;-71
2024/01/07 09:45:05;;;;;;;4.50;1.50;;;;;;;4.27;100.00;102326.28;5068669;28;20147;-71
2024/01/07 09:47:32;;;;;;;4.88;1.48;;;;;;;4.22;100.00;102322.72;5068770;28;20041;-71
2024/01/07 09:49:59;;;;;;;4.10;1.40;;;;;;;4.28;100.00;102333.19;5059923;28;20053;-71
2024/01/07 09:52:26;;;;;;;6.38;1.45;;;;;;;4.19;100.00;102331.31;5065402;28;20082;-71
2024/01/07 09:55:00;;;;;;;6.15;1.48;;;;;;;4.19;100.00;102338.25;5053418;28;20041;-71
2024/01/07 09:57:27;;;;;;;4.07;1.42;;;;;;;4.15;100.00;102328.69;5069050;28;20052;-71
2024/01/07 09:59:53;;;;;;;5.22;1.50;;;;;;;4.09;100.00;102319.09;5072361;28;20045;-71
2024/01/07 10:02:22;;;;;;;3.45;1.50;;;;;;;4.12;100.00;102328.63;5060868;28;20409;-71
2024/01/07 10:04:50;;;;;;;4.40;1.60;;;;;;;4.09;100.00;102329.47;5058314;28;20050;-71
2024/01/07 10:07:17;;;;;;;5.85;1.50;;;;;;;4.11;100.00;102334.69;5070765;28;20105;-71
2024/01/07 10:09:44;;;;;;;5.75;1.60;;;;;;;4.06;100.00;102329.41;5057447;28;20107;-71
2024/01/07 10:12:12;;;;;;;6.20;1.60;;;;;;;4.01;100.00;102325.88;5052957;28;20475;-72
2024/01/07 10:14:40;;;;;;;4.85;1.60;;;;;;;4.28;100.00;102340.09;5063344;28;20087;-72
2024/01/07 10:17:16;;;;;;;3.63;1.40;;;;;;;4.20;100.00;102321.84;5066322;28;20045;-71
2024/01/07 10:19:46;;;;;;;6.68;1.52;;;;;;;4.31;100.00;102333.22;5060484;28;20086;-71
2024/01/07 10:22:13;;;;;;;10.48;1.85;;;;;;;4.47;100.00;102336.03;5062670;28;20063;-71
2024/01/07 10:24:41;;;;;;;4.53;1.60;;;;;;;4.59;100.00;102351.78;5063704;28;20131;-71
2024/01/07 10:27:09;;;;;;;6.38;1.70;;;;;;;4.46;100.00;102339.47;5068420;28;20147;-72
2024/01/07 10:29:36;;;;;;;3.10;1.35;;;;;;;4.61;100.00;102354.38;5054982;28;20443;-71
2024/01/07 10:32:06;;;;;;;5.57;1.42;;;;;;;4.60;100.00;102339.66;5070046;28;20056;-71
2024/01/07 10:34:36;;;;;;;4.60;1.48;;;;;;;4.60;100.00;102350.03;5062249;28;20037;-72
2024/01/07 10:37:04;;;;;;;3.88;1.60;;;;;;;4.65;100.00;102351.84;5063424;28;20052;-72
2024/01/07 10:39:32;;;;;;;3.20;1.40;;;;;;;4.59;100.00;102349.19;5059961;28;20041;-72
2024/01/07 10:41:59;;;;;;;5.20;1.40;;;;;;;4.53;100.00;102352.56;5053957;28;20067;-72
2024/01/07 10:44:27;;;;;;;4.57;1.40;;;;;;;4.63;100.00;102355.28;5059031;28;20126;-72
2024/01/07 10:46:58;;;;;;;4.43;1.55;;;;;;;4.57;100.00;102353.47;5065324;28;20052;-72
2024/01/07 10:49:28;;;;;;;3.17;1.27;;;;;;;4.65;100.00;102345.78;5066915;28;20474;-72
2024/01/07 10:52:08;;;;;;;3.35;1.40;;;;;;;4.73;100.00;102360.59;5061404;28;20148;-72
2024/01/07 10:54:36;;;;;;;6.93;1.80;;;;;;;4.79;100.00;102362.38;5054867;28;20052;-72
2024/01/07 10:57:21;;;;;;;6.28;1.50;;;;;;;4.78;100.00;102373.66;5051144;28;20379;-72
2024/01/07 10:59:50;;;;;;;7.28;2.10;;;;;;;4.95;100.00;102372.09;5051244;28;20102;-71
2024/01/07 11:02:19;;;;;;;3.42;1.20;;;;;;;4.94;100.00;102353.94;5062032;28;20057;-71
2024/01/07 11:05:05;;;;;;;4.97;1.45;;;;;;;5.13;100.00;102368.88;5058046;28;20141;-71
2024/01/07 11:07:37;;;;;;;1.98;1.00;;;;;;;5.17;100.00;102364.56;5058149;28;20051;-71
2024/01/07 11:10:13;;;;;;;10.25;2.03;;;;;;;5.28;100.00;102386.31;5056009;28;20137;-71
2024/01/07 11:12:40;;;;;;;4.82;1.20;;;;;;;5.22;100.00;102378.47;5055569;28;20060;-71
2024/01/07 11:15:07;;;;;;;2.75;1.10;;;;;;;5.23;100.00;102376.75;5067711;28;20044;-72
2024/01/07 11:17:37;;;;;;;4.57;1.38;;;;;;;5.38;100.00;102386.41;5069627;28;20474;-72
2024/01/07 11:20:14;;;;;;;6.82;1.50;;;;;;;5.34;100.00;102372.53;5064372;28;20048;-72
2024/01/07 11:22:40;;;;;;;7.38;1.60;;;;;;;5.40;100.00;102375.22;5063167;28;20057;-72
2024/01/07 11:25:28;;;;;;;3.85;1.50;;;;;;;5.51;100.00;102378.78;5073706;28;20045;-72